Time;durP1;ratioP1;P1;durP2;ratioP2;P2;SDS_P1;SDS_P2;PMS_P1;PMS_P2;Temp;Humidity;BMP_temperature;BMP_pressure;BME280_temperature;BME280_humidity;BME280_pressure;Samples;Min_cycle;Max_cycle;Signal;HPM_P1;HPM_P2
2023/03/23 00:02:24;;;;;;;10.23;8.18;;;11.20;99.90;;;;;;4949385;29;20039;-70
2023/03/23 00:04:50;;;;;;;11.85;7.80;;;11.10;99.90;;;;;;4951231;29;20036;-70
2023/03/23 00:07:21;;;;;;;11.80;7.25;;;11.10;99.90;;;;;;4947054;29;20099;-70
2023/03/23 00:09:53;;;;;;;10.50;7.20;;;11.10;99.90;;;;;;4940204;29;20103;-71
2023/03/23 00:12:34;;;;;;;9.35;6.65;;;11.20;99.90;;;;;;4945737;29;20048;-70
2023/03/23 00:15:01;;;;;;;11.55;7.60;;;11.20;99.90;;;;;;4948917;29;20040;-70
2023/03/23 00:17:28;;;;;;;13.23;7.20;;;11.20;99.90;;;;;;4948532;29;20055;-70
2023/03/23 00:19:54;;;;;;;11.23;7.18;;;11.10;99.90;;;;;;4948661;29;20103;-70
2023/03/23 00:22:24;;;;;;;11.65;6.82;;;11.10;99.90;;;;;;4950587;29;20180;-70
2023/03/23 00:24:51;;;;;;;9.38;6.90;;;11.10;99.90;;;;;;4941178;29;20070;-70
2023/03/23 00:27:18;;;;;;;9.48;7.18;;;11.10;99.90;;;;;;4947555;29;20100;-70
2023/03/23 00:29:45;;;;;;;10.80;6.40;;;11.10;99.90;;;;;;4945385;29;20043;-70
2023/03/23 00:32:14;;;;;;;12.75;6.97;;;11.10;99.90;;;;;;4944876;29;20051;-70
2023/03/23 00:34:41;;;;;;;10.82;6.45;;;11.10;99.90;;;;;;4939240;29;20067;-70
2023/03/23 00:37:07;;;;;;;7.65;6.28;;;11.10;99.90;;;;;;4940562;29;20040;-70
2023/03/23 00:39:36;;;;;;;8.75;6.20;;;11.10;99.90;;;;;;4942261;29;20075;-70
2023/03/23 00:42:03;;;;;;;11.18;6.47;;;11.10;99.90;;;;;;4940645;29;20054;-70
2023/03/23 00:44:30;;;;;;;7.95;5.75;;;11.10;99.90;;;;;;4942395;29;20668;-71
2023/03/23 00:46:56;;;;;;;9.85;6.07;;;11.10;99.90;;;;;;4940913;29;20051;-70
2023/03/23 00:49:24;;;;;;;8.25;5.80;;;11.10;99.90;;;;;;4940829;29;20051;-68
2023/03/23 00:51:51;;;;;;;9.95;5.47;;;11.10;99.90;;;;;;4916668;29;20036;-67
2023/03/23 00:54:17;;;;;;;11.80;6.53;;;11.10;99.90;;;;;;4938705;29;20067;-68
2023/03/23 00:56:43;;;;;;;11.07;5.13;;;11.10;99.90;;;;;;4939457;29;20055;-68
2023/03/23 00:59:09;;;;;;;8.73;5.07;;;11.10;99.90;;;;;;4937505;29;20076;-68
2023/03/23 01:01:35;;;;;;;6.20;4.72;;;11.20;99.90;;;;;;4939680;29;20054;-68
2023/03/23 01:04:04;;;;;;;8.48;5.53;;;11.10;99.90;;;;;;4936326;29;20104;-68
2023/03/23 01:06:42;;;;;;;6.65;4.68;;;11.20;99.90;;;;;;4935614;29;20047;-69
2023/03/23 01:09:14;;;;;;;6.40;3.95;;;11.10;99.90;;;;;;4936804;29;20131;-69
2023/03/23 01:11:43;;;;;;;8.02;4.28;;;11.10;99.90;;;;;;4933930;29;20103;-69
2023/03/23 01:14:10;;;;;;;6.72;3.72;;;11.10;99.90;;;;;;4934590;29;20364;-69
2023/03/23 01:16:35;;;;;;;7.85;3.75;;;11.20;99.90;;;;;;4934307;29;20047;-69
2023/03/23 01:19:02;;;;;;;7.05;3.55;;;11.10;99.90;;;;;;4931363;29;20414;-68
2023/03/23 01:21:28;;;;;;;8.20;3.90;;;11.10;99.90;;;;;;4935849;29;20496;-69
2023/03/23 01:23:53;;;;;;;7.43;3.97;;;11.20;99.90;;;;;;4931039;29;20116;-69
2023/03/23 01:26:23;;;;;;;7.05;3.80;;;11.10;99.90;;;;;;4939933;29;20047;-69
2023/03/23 01:28:49;;;;;;;6.68;3.53;;;11.10;99.90;;;;;;4938832;29;20044;-69
2023/03/23 01:31:17;;;;;;;5.97;3.33;;;11.20;99.90;;;;;;4938886;29;20036;-69
2023/03/23 01:33:44;;;;;;;4.47;3.70;;;11.20;99.90;;;;;;4937111;29;20040;-69
2023/03/23 01:36:16;;;;;;;6.18;3.83;;;11.20;99.90;;;;;;4934971;29;20031;-69
2023/03/23 01:38:44;;;;;;;7.07;2.95;;;11.20;99.90;;;;;;4936219;29;20122;-69
2023/03/23 01:41:10;;;;;;;7.40;3.72;;;11.20;99.90;;;;;;4936285;29;20039;-69
2023/03/23 01:43:36;;;;;;;8.40;3.47;;;11.20;99.90;;;;;;4935875;29;20496;-69
2023/03/23 01:46:02;;;;;;;5.22;3.08;;;11.20;99.90;;;;;;4939609;29;20066;-69
2023/03/23 01:48:32;;;;;;;6.28;3.22;;;11.20;99.90;;;;;;4934157;29;20040;-69
2023/03/23 01:51:04;;;;;;;6.22;3.65;;;11.20;99.90;;;;;;4935714;29;20046;-69
2023/03/23 01:53:37;;;;;;;5.80;3.40;;;11.20;99.90;;;;;;4935338;29;20032;-69
2023/03/23 01:56:04;;;;;;;5.68;3.42;;;11.10;99.90;;;;;;4937863;29;20052;-69
2023/03/23 01:58:33;;;;;;;5.43;3.28;;;11.10;99.90;;;;;;4934635;29;20036;-69
2023/03/23 02:01:03;;;;;;;6.93;3.25;;;11.10;99.90;;;;;;4937860;29;20062;-69
2023/03/23 02:03:31;;;;;;;5.07;3.10;;;11.10;99.90;;;;;;4938914;29;20040;-69
2023/03/23 02:06:00;;;;;;;7.22;3.88;;;11.20;99.90;;;;;;4936980;29;20043;-69
2023/03/23 02:08:32;;;;;;;7.65;3.60;;;11.10;99.90;;;;;;4920723;29;20089;-68
2023/03/23 02:10:58;;;;;;;8.23;3.03;;;11.10;99.90;;;;;;4937651;29;20062;-68
2023/03/23 02:13:25;;;;;;;5.85;3.55;;;11.20;99.90;;;;;;4935668;29;20384;-68
2023/03/23 02:15:59;;;;;;;6.07;3.22;;;11.20;99.90;;;;;;4936386;29;20048;-69
2023/03/23 02:18:47;;;;;;;6.00;2.75;;;11.20;99.90;;;;;;4934014;29;20040;-68
2023/03/23 02:21:50;;;;;;;8.25;3.38;;;11.10;99.90;;;;;;4936407;29;20122;-69
2023/03/23 02:24:37;;;;;;;9.73;3.65;;;11.20;99.90;;;;;;4934904;29;20039;-69
2023/03/23 02:27:11;;;;;;;4.65;2.88;;;11.10;99.90;;;;;;4936376;29;20043;-69
2023/03/23 02:30:08;;;;;;;6.45;2.72;;;11.10;99.90;;;;;;4937280;29;20043;-69
2023/03/23 02:33:08;;;;;;;4.75;2.70;;;11.10;99.90;;;;;;4938061;29;20054;-69
2023/03/23 02:35:49;;;;;;;4.15;2.88;;;11.10;99.90;;;;;;4933913;29;20044;-69
2023/03/23 02:38:40;;;;;;;4.70;2.88;;;11.10;99.90;;;;;;4935178;29;20062;-69
2023/03/23 02:41:08;;;;;;;7.88;3.22;;;11.10;99.90;;;;;;4936510;29;20043;-69
2023/03/23 02:43:43;;;;;;;6.18;3.20;;;11.10;99.90;;;;;;4933423;29;20047;-68
2023/03/23 02:46:10;;;;;;;4.18;2.72;;;11.10;99.90;;;;;;4934590;29;20046;-68
2023/03/23 02:48:39;;;;;;;5.00;2.67;;;11.10;99.90;;;;;;4934935;29;20059;-68
2023/03/23 02:51:07;;;;;;;9.30;3.00;;;11.10;99.90;;;;;;4936813;29;20036;-69
2023/03/23 02:53:37;;;;;;;4.78;2.50;;;11.10;99.90;;;;;;4935949;29;20119;-68
2023/03/23 02:56:06;;;;;;;3.42;2.33;;;11.10;99.90;;;;;;4932064;29;20068;-69
2023/03/23 02:58:32;;;;;;;6.00;2.92;;;11.10;99.90;;;;;;4921044;29;20051;-69
2023/03/23 03:00:58;;;;;;;4.22;2.40;;;11.00;99.90;;;;;;4937929;29;20043;-69
2023/03/23 03:03:28;;;;;;;5.93;2.55;;;11.10;99.90;;;;;;4940263;29;20484;-69
2023/03/23 03:06:16;;;;;;;6.07;2.80;;;11.00;99.90;;;;;;4933980;29;20055;-69
2023/03/23 03:08:59;;;;;;;3.95;2.58;;;11.00;99.90;;;;;;4931467;29;20055;-69
2023/03/23 03:11:25;;;;;;;4.72;2.63;;;11.00;99.90;;;;;;4937175;29;20050;-69
2023/03/23 03:14:06;;;;;;;4.43;2.88;;;11.00;99.90;;;;;;4939499;29;20095;-69
2023/03/23 03:17:04;;;;;;;6.05;2.72;;;11.00;99.90;;;;;;4934973;29;20179;-69
2023/03/23 03:19:35;;;;;;;6.70;2.67;;;11.00;99.90;;;;;;4935377;29;20142;-69
2023/03/23 03:22:01;;;;;;;4.13;2.80;;;11.00;99.90;;;;;;4930178;29;20053;-69
2023/03/23 03:24:29;;;;;;;4.10;2.80;;;11.00;99.90;;;;;;4931936;29;20048;-69
2023/03/23 03:26:59;;;;;;;8.15;2.60;;;11.00;99.90;;;;;;4934114;29;20062;-68
2023/03/23 03:29:29;;;;;;;5.07;2.55;;;11.10;99.90;;;;;;4934995;29;20126;-69
2023/03/23 03:31:58;;;;;;;7.43;2.60;;;11.10;99.90;;;;;;4932581;29;20036;-69
2023/03/23 03:34:24;;;;;;;4.25;2.60;;;11.10;99.90;;;;;;4932436;29;20543;-68
2023/03/23 03:36:53;;;;;;;7.85;3.50;;;11.10;99.90;;;;;;4932506;29;20036;-69
2023/03/23 03:39:20;;;;;;;6.60;2.85;;;11.10;99.90;;;;;;4935971;29;20245;-69
2023/03/23 03:41:47;;;;;;;5.05;3.10;;;11.20;99.90;;;;;;4930726;29;20116;-69
2023/03/23 03:44:13;;;;;;;4.57;3.00;;;11.20;99.90;;;;;;4934958;29;20046;-69
2023/03/23 03:46:39;;;;;;;4.22;3.08;;;11.20;99.90;;;;;;4933015;29;20478;-68
2023/03/23 03:49:08;;;;;;;6.22;3.33;;;11.20;99.90;;;;;;4911144;29;20358;-69
2023/03/23 03:51:34;;;;;;;6.50;3.20;;;11.20;99.90;;;;;;4933180;29;20050;-68
2023/03/23 03:54:01;;;;;;;5.00;3.08;;;11.20;99.90;;;;;;4934282;29;20141;-69
2023/03/23 03:56:26;;;;;;;6.00;2.85;;;11.20;99.90;;;;;;4932529;29;20059;-69
2023/03/23 03:58:53;;;;;;;4.00;2.65;;;11.20;99.90;;;;;;4931077;29;20131;-69
2023/03/23 04:01:22;;;;;;;4.53;2.70;;;11.20;99.90;;;;;;4930160;29;20055;-69
2023/03/23 04:03:49;;;;;;;6.32;3.58;;;11.20;99.90;;;;;;4932956;29;20159;-69
2023/03/23 04:06:15;;;;;;;5.20;3.75;;;11.20;99.90;;;;;;4933119;29;20055;-69
2023/03/23 04:08:42;;;;;;;5.55;3.72;;;11.20;99.90;;;;;;4914664;29;20070;-68
2023/03/23 04:11:10;;;;;;;3.97;3.08;;;11.30;99.90;;;;;;4927840;29;20058;-69
2023/03/23 04:13:36;;;;;;;5.93;3.97;;;11.30;99.90;;;;;;4932413;29;20535;-68
2023/03/23 04:16:02;;;;;;;4.85;3.15;;;11.30;99.90;;;;;;4931736;29;20052;-68
2023/03/23 04:18:29;;;;;;;6.93;3.50;;;11.30;99.90;;;;;;4928363;29;20047;-68
2023/03/23 04:20:58;;;;;;;5.53;3.67;;;11.30;99.90;;;;;;4933610;29;20054;-68
2023/03/23 04:23:25;;;;;;;5.97;3.40;;;11.30;99.90;;;;;;4931328;29;20054;-68
2023/03/23 04:25:53;;;;;;;6.32;3.53;;;11.30;99.90;;;;;;4929700;29;20051;-68
2023/03/23 04:28:23;;;;;;;7.03;3.33;;;11.30;99.90;;;;;;4933098;29;20040;-68
2023/03/23 04:30:52;;;;;;;8.25;3.97;;;11.30;99.90;;;;;;4931461;29;20050;-68
2023/03/23 04:33:19;;;;;;;6.65;3.78;;;11.30;99.90;;;;;;4932497;29;20035;-69
2023/03/23 04:35:47;;;;;;;5.90;3.63;;;11.30;99.90;;;;;;4932029;29;20040;-69
2023/03/23 04:38:20;;;;;;;7.43;3.42;;;11.30;99.90;;;;;;4930502;29;20058;-69
2023/03/23 04:40:47;;;;;;;6.95;4.00;;;11.40;99.90;;;;;;4940466;29;20220;-70
2023/03/23 04:43:14;;;;;;;6.55;3.63;;;11.40;99.90;;;;;;4933267;29;20733;-70
2023/03/23 04:45:45;;;;;;;8.40;4.03;;;11.30;99.90;;;;;;4939440;29;20051;-71
2023/03/23 04:48:12;;;;;;;9.52;4.03;;;11.30;99.90;;;;;;4919605;29;20480;-72
2023/03/23 04:50:38;;;;;;;6.78;4.00;;;11.30;99.90;;;;;;4928014;29;20055;-74
2023/03/23 04:53:04;;;;;;;7.85;3.97;;;11.30;99.90;;;;;;4926386;29;20127;-73
2023/03/23 04:55:35;;;;;;;9.55;4.88;;;11.20;99.90;;;;;;4926273;29;20039;-71
2023/03/23 04:58:05;;;;;;;7.72;3.67;;;11.10;99.90;;;;;;4903725;29;20058;-70
2023/03/23 05:00:35;;;;;;;4.75;2.17;;;11.00;99.90;;;;;;4927714;29;20039;-72
2023/03/23 05:03:00;;;;;;;3.97;1.55;;;10.80;99.90;;;;;;4928644;29;20431;-73
2023/03/23 05:05:29;;;;;;;6.70;2.47;;;10.70;99.90;;;;;;4930671;29;20043;-74
2023/03/23 05:07:55;;;;;;;8.50;1.77;;;10.50;99.90;;;;;;4903657;29;20408;-74
2023/03/23 05:10:21;;;;;;;9.32;1.58;;;10.40;99.90;;;;;;4931404;29;20067;-75
2023/03/23 05:12:47;;;;;;;5.18;1.75;;;10.30;99.90;;;;;;4932853;29;20060;-75
2023/03/23 05:15:14;;;;;;;7.30;2.08;;;10.20;99.90;;;;;;4929701;29;20050;-75
2023/03/23 05:17:43;;;;;;;5.50;1.70;;;10.20;99.90;;;;;;4942244;29;20077;-75
2023/03/23 05:20:12;;;;;;;7.03;1.42;;;10.20;99.90;;;;;;4910520;29;20464;-75
2023/03/23 05:22:38;;;;;;;7.03;1.90;;;10.20;99.90;;;;;;4931385;29;20050;-75
2023/03/23 05:25:08;;;;;;;10.57;2.20;;;10.20;99.90;;;;;;4929164;29;20059;-74
2023/03/23 05:27:35;;;;;;;7.40;1.98;;;10.20;99.90;;;;;;4928494;29;20044;-73
2023/03/23 05:30:01;;;;;;;8.35;2.15;;;10.20;99.90;;;;;;4933846;29;20494;-73
2023/03/23 05:32:30;;;;;;;11.85;2.15;;;10.20;99.90;;;;;;4936841;29;20039;-74
2023/03/23 05:35:00;;;;;;;9.95;2.47;;;10.30;99.90;;;;;;4941026;29;20090;-73
2023/03/23 05:37:31;;;;;;;13.60;2.75;;;10.30;99.90;;;;;;4933966;29;20046;-73
2023/03/23 05:40:04;;;;;;;12.63;2.67;;;10.30;99.90;;;;;;4945495;29;20159;-74
2023/03/23 05:42:31;;;;;;;9.07;2.22;;;10.40;99.90;;;;;;4933656;29;20500;-74
2023/03/23 05:44:58;;;;;;;10.18;2.50;;;10.40;99.90;;;;;;4930607;29;20114;-74
2023/03/23 05:47:25;;;;;;;10.85;1.92;;;10.40;99.90;;;;;;4931672;29;20057;-73
2023/03/23 05:49:51;;;;;;;10.07;2.25;;;10.40;99.90;;;;;;4928275;29;20499;-74
2023/03/23 05:52:18;;;;;;;11.38;1.85;;;10.40;99.90;;;;;;4917523;29;20480;-73
2023/03/23 05:54:44;;;;;;;10.48;1.92;;;10.40;99.90;;;;;;4927604;29;20040;-73
2023/03/23 05:57:10;;;;;;;9.25;2.00;;;10.40;99.90;;;;;;4927853;29;20419;-73
2023/03/23 05:59:36;;;;;;;6.70;1.60;;;10.30;99.90;;;;;;4930734;29;20114;-72
2023/03/23 06:02:03;;;;;;;6.80;1.48;;;10.30;99.90;;;;;;4927863;29;20508;-73
2023/03/23 06:04:29;;;;;;;5.95;1.40;;;10.20;99.90;;;;;;4927803;29;20082;-73
2023/03/23 06:06:55;;;;;;;8.77;1.55;;;10.20;99.90;;;;;;4912219;29;20067;-72
2023/03/23 06:09:23;;;;;;;8.15;1.35;;;10.20;99.90;;;;;;4937921;29;20047;-72
2023/03/23 06:11:49;;;;;;;8.13;1.85;;;10.10;99.90;;;;;;4933463;29;20036;-72
2023/03/23 06:14:16;;;;;;;9.88;1.60;;;10.10;99.90;;;;;;4940374;29;20523;-72
2023/03/23 06:16:41;;;;;;;7.07;1.60;;;10.00;99.90;;;;;;4940296;29;20040;-72
2023/03/23 06:19:07;;;;;;;7.10;1.63;;;10.10;99.90;;;;;;4947466;29;20043;-72
2023/03/23 06:21:34;;;;;;;10.57;2.83;;;10.10;99.90;;;;;;4924537;29;20066;-72
2023/03/23 06:23:59;;;;;;;9.18;2.00;;;10.10;99.90;;;;;;4928376;29;20044;-72
2023/03/23 06:26:38;;;;;;;10.77;1.98;;;10.00;99.90;;;;;;4948302;29;20035;-71
2023/03/23 06:29:11;;;;;;;10.30;2.20;;;10.10;99.90;;;;;;4946362;29;20049;-71
2023/03/23 06:31:47;;;;;;;11.13;2.42;;;10.00;99.90;;;;;;4928324;29;20119;-71
2023/03/23 06:34:13;;;;;;;11.23;2.05;;;10.20;99.90;;;;;;4950030;29;20048;-71
2023/03/23 06:36:38;;;;;;;10.10;2.03;;;10.10;99.90;;;;;;4946549;29;20231;-71
2023/03/23 06:39:05;;;;;;;11.50;2.05;;;10.20;99.90;;;;;;4947823;29;20055;-71
2023/03/23 06:41:32;;;;;;;16.17;2.40;;;10.20;99.90;;;;;;4948779;29;20032;-71
2023/03/23 06:43:58;;;;;;;15.60;2.70;;;10.20;99.90;;;;;;4946411;29;20067;-71
2023/03/23 06:46:24;;;;;;;17.63;2.42;;;10.20;99.90;;;;;;4945814;29;20043;-71
2023/03/23 06:48:51;;;;;;;19.83;3.65;;;10.30;99.90;;;;;;4946283;29;20042;-71
2023/03/23 06:51:17;;;;;;;19.00;3.45;;;10.30;99.90;;;;;;4929634;29;20035;-71
2023/03/23 06:53:43;;;;;;;17.92;3.33;;;10.40;99.90;;;;;;4940770;29;20488;-71
2023/03/23 06:56:10;;;;;;;14.93;2.67;;;10.40;99.90;;;;;;4941591;29;20431;-71
2023/03/23 06:58:36;;;;;;;17.95;3.55;;;10.40;99.90;;;;;;4940042;29;20059;-71
2023/03/23 07:01:01;;;;;;;22.10;3.30;;;10.50;99.90;;;;;;4942170;29;20047;-71
2023/03/23 07:03:27;;;;;;;20.08;2.97;;;10.50;99.90;;;;;;4938224;29;20135;-71
2023/03/23 07:05:54;;;;;;;19.63;3.42;;;10.50;99.90;;;;;;4940348;29;20472;-71
2023/03/23 07:08:20;;;;;;;18.65;3.75;;;10.60;99.90;;;;;;4940692;29;20112;-71
2023/03/23 07:10:47;;;;;;;23.58;3.15;;;10.60;99.90;;;;;;4942433;29;20067;-71
2023/03/23 07:13:13;;;;;;;21.35;3.85;;;10.70;99.90;;;;;;4938511;29;20119;-70
2023/03/23 07:15:39;;;;;;;14.23;3.25;;;10.70;99.90;;;;;;4942618;29;20768;-71
2023/03/23 07:18:07;;;;;;;20.05;3.10;;;10.70;99.90;;;;;;4940658;29;20054;-71
2023/03/23 07:20:35;;;;;;;22.73;3.58;;;10.80;99.90;;;;;;4935767;29;20054;-70
2023/03/23 07:23:02;;;;;;;13.18;2.67;;;10.80;99.90;;;;;;4917061;29;20059;-70
2023/03/23 07:25:28;;;;;;;15.43;2.80;;;10.80;99.90;;;;;;4939005;29;20043;-70
2023/03/23 07:27:53;;;;;;;17.05;3.20;;;10.90;99.90;;;;;;4942695;29;20043;-70
2023/03/23 07:30:19;;;;;;;16.52;3.38;;;10.80;99.90;;;;;;4925991;29;20090;-70
2023/03/23 07:32:45;;;;;;;17.30;3.42;;;10.90;99.90;;;;;;4942114;29;20043;-69
2023/03/23 07:35:12;;;;;;;17.05;2.92;;;11.00;99.90;;;;;;4942273;29;20130;-69
2023/03/23 07:37:37;;;;;;;16.67;2.83;;;11.10;99.90;;;;;;4941836;29;20264;-69
2023/03/23 07:40:08;;;;;;;18.70;3.45;;;11.20;99.90;;;;;;4939396;29;20050;-69
2023/03/23 07:42:34;;;;;;;19.25;3.38;;;11.30;99.90;;;;;;4922742;29;20035;-69
2023/03/23 07:45:00;;;;;;;15.90;2.90;;;11.40;99.90;;;;;;4942600;29;20035;-69
2023/03/23 07:47:26;;;;;;;14.68;2.97;;;11.50;99.90;;;;;;4943671;29;20051;-69
2023/03/23 07:49:51;;;;;;;17.27;3.10;;;11.50;99.90;;;;;;4937446;29;20095;-69
2023/03/23 07:52:17;;;;;;;17.00;3.88;;;11.50;99.90;;;;;;4940926;29;20059;-69
2023/03/23 07:54:43;;;;;;;16.63;3.50;;;11.60;99.90;;;;;;4921433;29;20039;-69
2023/03/23 07:57:08;;;;;;;25.25;4.68;;;11.60;99.90;;;;;;4941298;29;20063;-69
2023/03/23 07:59:35;;;;;;;21.58;3.72;;;11.60;99.90;;;;;;4931178;29;20086;-69
2023/03/23 08:02:01;;;;;;;25.08;4.18;;;11.60;99.90;;;;;;4937156;29;20048;-69
2023/03/23 08:04:27;;;;;;;22.63;4.22;;;11.70;99.90;;;;;;4940184;29;20050;-68
2023/03/23 08:06:52;;;;;;;18.45;4.07;;;11.70;99.90;;;;;;4939539;29;20040;-68
2023/03/23 08:09:18;;;;;;;22.63;4.75;;;11.70;99.90;;;;;;4934416;29;20046;-68
2023/03/23 08:11:44;;;;;;;23.67;4.60;;;11.60;99.90;;;;;;4942196;29;20040;-69
2023/03/23 08:14:09;;;;;;;25.08;4.45;;;11.70;99.90;;;;;;4935849;29;20075;-68
2023/03/23 08:16:35;;;;;;;16.08;3.63;;;11.70;99.90;;;;;;4940836;29;20035;-68
2023/03/23 08:19:02;;;;;;;21.05;4.50;;;11.70;99.90;;;;;;4935723;29;20059;-69
2023/03/23 08:21:28;;;;;;;20.35;4.20;;;11.70;99.90;;;;;;4936619;29;20047;-69
2023/03/23 08:23:54;;;;;;;22.48;4.30;;;11.70;99.90;;;;;;4935939;29;20043;-69
2023/03/23 08:26:21;;;;;;;18.85;3.20;;;11.80;99.90;;;;;;4934409;29;20035;-69
2023/03/23 08:28:47;;;;;;;21.85;3.80;;;11.80;99.90;;;;;;4935096;29;20062;-69
2023/03/23 08:31:14;;;;;;;20.00;3.58;;;11.80;99.90;;;;;;4921912;29;20067;-69
2023/03/23 08:33:41;;;;;;;14.18;2.90;;;11.80;99.90;;;;;;4934173;29;20032;-69
2023/03/23 08:36:08;;;;;;;21.08;3.53;;;11.90;99.90;;;;;;4942157;29;20075;-69
2023/03/23 08:38:34;;;;;;;17.60;3.30;;;11.90;99.90;;;;;;4939077;29;20090;-70
2023/03/23 08:41:04;;;;;;;18.25;3.50;;;11.90;99.90;;;;;;4936700;29;20048;-69
2023/03/23 08:43:31;;;;;;;16.23;3.22;;;11.90;99.90;;;;;;4941309;29;20111;-69
2023/03/23 08:45:57;;;;;;;19.05;3.17;;;11.90;99.90;;;;;;4940103;29;20047;-70
2023/03/23 08:48:23;;;;;;;15.38;3.42;;;12.30;99.90;;;;;;4937889;29;20039;-69
2023/03/23 08:50:51;;;;;;;20.38;4.40;;;12.40;99.90;;;;;;4937878;29;20043;-70
2023/03/23 08:53:18;;;;;;;18.52;3.95;;;12.40;99.90;;;;;;4953304;29;20040;-69
2023/03/23 08:55:44;;;;;;;17.00;3.58;;;12.60;99.90;;;;;;4936450;29;20095;-70
2023/03/23 08:58:09;;;;;;;19.80;3.90;;;13.10;99.90;;;;;;4935750;29;20052;-70
2023/03/23 09:00:35;;;;;;;21.10;3.67;;;13.10;99.90;;;;;;4936988;29;20075;-69
2023/03/23 09:03:01;;;;;;;16.20;3.92;;;13.00;99.90;;;;;;4932390;29;20051;-69
2023/03/23 09:05:28;;;;;;;16.88;4.40;;;12.80;99.90;;;;;;4937503;29;20539;-69
2023/03/23 09:07:58;;;;;;;19.63;4.65;;;12.70;99.90;;;;;;4937377;29;20039;-69
2023/03/23 09:10:26;;;;;;;18.70;4.75;;;12.70;99.90;;;;;;4916806;29;20036;-70
2023/03/23 09:12:54;;;;;;;20.00;5.10;;;13.00;99.90;;;;;;4936529;29;20062;-69
2023/03/23 09:15:19;;;;;;;17.50;3.92;;;13.50;99.90;;;;;;4934452;29;20040;-70
2023/03/23 09:17:50;;;;;;;24.02;4.35;;;14.00;99.90;;;;;;4929655;29;20552;-69
2023/03/23 09:20:20;;;;;;;19.92;4.85;;;14.00;99.90;;;;;;4936519;29;20079;-70
2023/03/23 09:22:49;;;;;;;15.48;3.92;;;13.80;99.90;;;;;;4937174;29;20082;-69
2023/03/23 09:25:20;;;;;;;15.13;3.80;;;13.50;99.90;;;;;;4936932;29;20040;-70
2023/03/23 09:27:52;;;;;;;17.17;4.18;;;13.60;99.90;;;;;;4935378;29;20099;-69
2023/03/23 09:30:19;;;;;;;23.65;4.25;;;14.00;99.90;;;;;;4931497;29;20047;-70
2023/03/23 09:32:44;;;;;;;17.20;3.95;;;14.10;99.90;;;;;;4936129;29;20464;-70
2023/03/23 09:35:13;;;;;;;24.08;4.80;;;13.80;99.90;;;;;;4935153;29;20044;-70
2023/03/23 09:37:39;;;;;;;14.23;3.40;;;13.60;99.90;;;;;;4936968;29;20082;-69
2023/03/23 09:40:11;;;;;;;16.70;3.80;;;13.30;99.90;;;;;;4935585;29;20047;-69
2023/03/23 09:43:13;;;;;;;14.95;3.92;;;13.40;99.90;;;;;;4935969;29;20056;-69
2023/03/23 09:45:43;;;;;;;16.77;3.35;;;14.10;99.90;;;;;;4934289;29;20500;-70
2023/03/23 09:48:33;;;;;;;20.58;3.92;;;15.30;99.90;;;;;;4932959;29;20500;-70
2023/03/23 09:51:35;;;;;;;15.93;3.65;;;15.90;99.90;;;;;;4938544;29;20069;-70
2023/03/23 09:54:11;;;;;;;17.10;3.55;;;17.10;99.90;;;;;;4933896;29;20047;-69
2023/03/23 09:56:37;;;;;;;15.88;3.33;;;18.00;99.90;;;;;;4936285;29;20087;-70
2023/03/23 09:59:38;;;;;;;15.05;3.08;;;18.50;99.90;;;;;;4930085;29;20048;-70
2023/03/23 10:02:31;;;;;;;15.00;3.42;;;18.70;99.90;;;;;;4931711;29;20036;-69
2023/03/23 10:05:26;;;;;;;12.80;3.15;;;18.50;99.90;;;;;;4934047;29;20413;-69
2023/03/23 10:07:52;;;;;;;15.98;3.35;;;18.50;99.90;;;;;;4930200;29;20058;-69
2023/03/23 10:10:19;;;;;;;12.27;3.17;;;18.80;99.90;;;;;;4933731;29;20365;-70
2023/03/23 10:13:04;;;;;;;9.38;2.45;;;19.00;99.90;;;;;;4930162;29;20044;-69
2023/03/23 10:15:34;;;;;;;12.50;3.28;;;19.20;99.90;;;;;;4933406;29;20063;-70
2023/03/23 10:18:06;;;;;;;12.52;2.97;;;18.80;99.90;;;;;;4933034;29;20106;-70
2023/03/23 10:20:36;;;;;;;14.25;3.83;;;18.10;99.90;;;;;;4950726;29;20127;-69
2023/03/23 10:23:25;;;;;;;13.95;3.38;;;18.30;99.90;;;;;;4931861;29;20131;-70
2023/03/23 10:26:04;;;;;;;14.23;3.00;;;18.60;99.90;;;;;;4932271;29;20130;-69
2023/03/23 10:28:42;;;;;;;15.00;3.25;;;18.00;99.90;;;;;;4931233;29;20099;-69
2023/03/23 10:31:22;;;;;;;10.48;2.28;;;17.20;99.90;;;;;;4932371;29;20102;-69
2023/03/23 10:33:50;;;;;;;10.90;2.38;;;17.20;99.90;;;;;;4929378;29;20040;-69
2023/03/23 10:36:37;;;;;;;11.60;2.60;;;17.60;99.90;;;;;;4933112;29;20123;-69
2023/03/23 10:39:03;;;;;;;9.60;2.35;;;18.20;99.90;;;;;;4933747;29;20043;-69
2023/03/23 10:41:30;;;;;;;7.28;1.83;;;18.80;99.90;;;;;;4929429;29;20052;-69
2023/03/23 10:43:56;;;;;;;7.82;1.90;;;19.30;99.90;;;;;;4932616;29;20551;-69
2023/03/23 10:46:49;;;;;;;10.10;1.92;;;19.70;99.90;;;;;;4932962;29;20028;-69
2023/03/23 10:49:25;;;;;;;10.05;2.35;;;20.00;99.90;;;;;;4927179;29;20102;-69
2023/03/23 10:52:00;;;;;;;8.52;1.95;;;19.90;99.90;;;;;;4933394;29;20043;-69
2023/03/23 10:54:39;;;;;;;9.18;2.03;;;20.10;99.90;;;;;;4924101;29;20047;-69
2023/03/23 10:57:35;;;;;;;10.05;2.30;;;20.30;99.90;;;;;;4930115;29;20055;-69
2023/03/23 11:00:08;;;;;;;10.07;2.72;;;20.40;99.90;;;;;;4923289;29;20051;-69
2023/03/23 11:03:05;;;;;;;9.55;2.45;;;20.30;99.90;;;;;;4931790;29;20106;-69
2023/03/23 11:05:43;;;;;;;10.52;2.20;;;19.70;99.90;;;;;;4927336;29;20496;-69
2023/03/23 11:08:20;;;;;;;8.25;1.95;;;19.70;99.90;;;;;;4926785;29;20134;-69
2023/03/23 11:10:52;;;;;;;11.27;2.13;;;19.90;99.90;;;;;;4932056;29;20046;-69
2023/03/23 11:13:20;;;;;;;6.90;1.60;;;19.60;99.90;;;;;;4910844;29;20040;-69
2023/03/23 11:15:48;;;;;;;10.23;2.22;;;19.40;99.90;;;;;;4930149;29;20487;-69
2023/03/23 11:18:23;;;;;;;8.55;2.10;;;19.30;99.90;;;;;;4929139;29;20048;-69
2023/03/23 11:20:57;;;;;;;9.93;2.40;;;19.60;99.90;;;;;;4930433;29;20399;-69
2023/03/23 11:23:25;;;;;;;8.85;2.05;;;19.90;99.90;;;;;;4928926;29;20044;-69
2023/03/23 11:26:07;;;;;;;11.20;2.50;;;20.10;99.90;;;;;;4931376;29;20048;-69
2023/03/23 11:28:36;;;;;;;13.77;2.45;;;19.50;99.90;;;;;;4927299;29;20052;-69
2023/03/23 11:31:05;;;;;;;12.02;2.40;;;18.60;99.90;;;;;;4931323;29;20081;-68
2023/03/23 11:33:51;;;;;;;9.30;2.47;;;18.10;99.90;;;;;;4930013;29;20043;-68
2023/03/23 11:36:17;;;;;;;9.38;2.20;;;18.40;99.90;;;;;;4929771;29;20427;-68
2023/03/23 11:38:44;;;;;;;10.30;1.95;;;18.10;99.90;;;;;;4926774;29;20046;-68
2023/03/23 11:41:12;;;;;;;9.25;2.13;;;17.70;99.90;;;;;;4927571;29;20051;-68
2023/03/23 11:43:44;;;;;;;7.30;1.80;;;17.40;99.90;;;;;;4930939;29;20070;-68
2023/03/23 11:46:22;;;;;;;9.50;1.92;;;17.10;99.90;;;;;;4930985;29;20043;-68
2023/03/23 11:49:15;;;;;;;8.25;1.75;;;17.30;99.90;;;;;;4927391;29;20375;-68
2023/03/23 11:51:55;;;;;;;7.38;2.30;;;18.30;99.90;;;;;;4928188;29;20042;-68
2023/03/23 11:54:30;;;;;;;7.95;2.00;;;18.90;99.90;;;;;;4928053;29;20094;-68
2023/03/23 11:56:56;;;;;;;8.85;1.90;;;19.20;99.90;;;;;;4928830;29;20068;-68
2023/03/23 11:59:33;;;;;;;8.00;1.88;;;19.40;99.90;;;;;;4929014;29;20052;-68
2023/03/23 12:02:20;;;;;;;9.00;2.03;;;19.90;99.90;;;;;;4932109;29;20040;-68
2023/03/23 12:05:05;;;;;;;9.02;1.92;;;19.40;99.90;;;;;;4941199;29;20111;-68
2023/03/23 12:07:49;;;;;;;11.63;2.30;;;19.20;99.90;;;;;;4929092;29;20039;-68
2023/03/23 12:10:41;;;;;;;9.80;2.60;;;19.70;99.90;;;;;;4928728;29;20044;-68
2023/03/23 12:13:38;;;;;;;11.07;2.30;;;20.20;99.00;;;;;;4930119;29;20138;-68
2023/03/23 12:16:28;;;;;;;12.77;2.60;;;19.90;99.90;;;;;;4908338;29;20047;-68
2023/03/23 12:19:27;;;;;;;11.98;2.70;;;18.70;99.90;;;;;;4928049;29;20044;-68
2023/03/23 12:22:18;;;;;;;11.52;2.63;;;17.70;99.90;;;;;;4928705;29;20339;-68
2023/03/23 12:25:11;;;;;;;9.85;2.33;;;17.40;99.90;;;;;;4928965;29;20406;-68
2023/03/23 12:28:06;;;;;;;12.15;2.33;;;16.80;99.90;;;;;;4926729;29;20131;-68
2023/03/23 12:30:43;;;;;;;11.20;2.58;;;16.30;99.90;;;;;;4918849;29;20519;-68
2023/03/23 12:33:46;;;;;;;11.88;2.45;;;15.80;99.90;;;;;;4928634;29;20376;-68
2023/03/23 12:36:36;;;;;;;11.55;2.33;;;15.40;99.90;;;;;;4927825;29;20177;-68
2023/03/23 12:39:12;;;;;;;12.00;2.65;;;15.30;99.90;;;;;;4929256;29;20405;-68
2023/03/23 12:42:00;;;;;;;10.43;2.50;;;15.20;99.90;;;;;;4926994;29;20040;-68
2023/03/23 12:44:40;;;;;;;8.73;2.22;;;15.10;99.90;;;;;;4924867;29;20071;-68
2023/03/23 12:47:08;;;;;;;11.38;2.70;;;15.00;99.90;;;;;;4929688;29;20326;-68
2023/03/23 12:49:54;;;;;;;12.15;2.25;;;15.50;99.90;;;;;;4924591;29;20058;-68
2023/03/23 12:52:41;;;;;;;12.10;2.03;;;16.10;99.90;;;;;;4924477;29;20102;-68
2023/03/23 12:55:17;;;;;;;8.95;2.22;;;16.20;99.90;;;;;;4919014;29;20036;-68
2023/03/23 12:57:46;;;;;;;10.63;1.90;;;16.30;99.90;;;;;;4928549;29;20048;-68
2023/03/23 13:00:20;;;;;;;11.32;2.38;;;17.40;99.90;;;;;;4927941;29;20043;-68
2023/03/23 13:03:10;;;;;;;10.98;2.55;;;18.50;99.90;;;;;;4923392;29;20051;-68
2023/03/23 13:05:54;;;;;;;9.98;2.35;;;19.20;99.90;;;;;;4925890;29;20079;-68